Tel Aviv, Israel

11:37 PM IST on March 06, 2015 (GMT +0200)
Ben-Shemen | Change Station
CLOSE
Current Station
Personal Weather Station
Location: Moshav 56 Maivar, SHFELA
Elevation: 197 ft
Nearby Weather Stations

Elev 197 ft 31.95 °N, 34.92 °E | Updated 53 seconds ago

Clear
Clear
72.0 °F
Feels Like 77 °F
N
12.1
Wind Variable Wind from ESE
Gusts 18.3 mph

Today
High -- | Low -- °F
--% Chance of Precip.
Yesterday
High -- | Low -- °F
Precip. -- in
6:02 AM 5:41 PM
Full, 99% visible
Pressure 30.01 in
Visibility -9999.0 miles
Clouds
Heat Index 77 °F
Dew Point 43 °F
Humidity 35%
Rainfall in
Snow Depth Not available.
UV Not available.
Pollen Not available.
Air Quality Not available.
Flu Activity Not available.
METAR LLBG 062120Z 11019KT CAVOK 22/01 Q1016 NOSIG

More Conditions Fewer Conditions

Pressure 30.01 in
Visibility -9999.0 miles
Clouds
Heat Index 77 °F
Dew Point 43 °F
Humidity 35%
Rainfall in
Snow Depth Not available.
UV Not available.
Pollen Not available.
Air Quality Not available.
Flu Activity Not available.
METAR LLBG 062120Z 11019KT CAVOK 22/01 Q1016 NOSIG

More Conditions Fewer Conditions

10-Day Weather Forecast

Almanac

Astronomy

Mar. 06, 2015 Rise Set
Actual Time
Civil Twilight
Nautical Twilight
Astronomical Twilight
Moon
Length of Visible Light
Length of Day
Tomorrow will be .
, % of the Moon is Illuminated

Today's Extremes

Country Highs Country Lows

Community

WunderPhotos

Upload Photos

1,803,406 photos uploaded!

WunderBlogs® & News

Nearby

Air Quality

  Air Quality AQ Index Pollutant
Not available.

Snow Depth

Station Depth Elevation

Earthquake Activity

City Distance Mag. Time & Date
Minimum magnitude displayed is 2.5.

Coastal Water Temperatures

Place Temperature

Nearby Weather Stations